createdAt,value
2019-03-22T00:00:07.996Z,103118.05
2019-03-22T00:02:37.840Z,103103.19
2019-03-22T00:05:07.035Z,103103.19
2019-03-22T00:07:36.857Z,103103.95
2019-03-22T00:10:06.769Z,103110.03
2019-03-22T00:12:35.950Z,103114.73
2019-03-22T00:15:06.030Z,103112.95
2019-03-22T00:17:35.484Z,103113.78
2019-03-22T00:20:05.561Z,103110.78
2019-03-22T00:22:34.785Z,103111.25
2019-03-22T00:25:03.986Z,103126.47
2019-03-22T00:27:33.818Z,103128.29
2019-03-22T00:30:03.023Z,103125.61
2019-03-22T00:32:32.525Z,103120.06
2019-03-22T00:35:02.358Z,103128.22
2019-03-22T00:37:31.553Z,103123.62
2019-03-22T00:40:00.744Z,103125.69
2019-03-22T00:42:30.654Z,103125.06
2019-03-22T00:44:59.830Z,103146.60
2019-03-22T00:47:29.033Z,103143.39
2019-03-22T00:49:58.446Z,103147.70
2019-03-22T00:52:27.707Z,103134.91
2019-03-22T00:54:57.158Z,103140.52
2019-03-22T00:57:28.721Z,103134.24
2019-03-22T00:59:57.566Z,103128.16
2019-03-22T01:02:27.413Z,103130.88
2019-03-22T01:04:57.237Z,103128.82
2019-03-22T01:07:26.417Z,103111.88
2019-03-22T01:09:56.013Z,103114.66
2019-03-22T01:12:25.259Z,103113.94
2019-03-22T01:14:55.149Z,103120.43
2019-03-22T01:17:24.297Z,103121.30
2019-03-22T01:19:54.058Z,103114.63
2019-03-22T01:22:23.559Z,103111.88
2019-03-22T01:24:53.575Z,103111.75
2019-03-22T01:27:22.731Z,103117.77
2019-03-22T01:29:52.286Z,103136.62
2019-03-22T01:32:21.463Z,103144.33
2019-03-22T01:34:51.399Z,103140.28
2019-03-22T01:37:20.590Z,103145.33
2019-03-22T01:39:49.820Z,103143.45
2019-03-22T01:42:19.614Z,103150.73
2019-03-22T01:44:48.824Z,103163.17
2019-03-22T01:47:18.010Z,103163.17
2019-03-22T01:49:47.922Z,103176.63
2019-03-22T01:52:17.097Z,103176.63
2019-03-22T01:54:46.614Z,103169.73
2019-03-22T01:57:16.133Z,103157.19
2019-03-22T01:59:45.329Z,103155.00
2019-03-22T02:02:14.835Z,103143.45
2019-03-22T02:04:44.339Z,103139.77
2019-03-22T02:07:13.524Z,103130.48
2019-03-22T02:09:43.046Z,103136.28
2019-03-22T02:12:12.230Z,103128.02
2019-03-22T02:14:41.409Z,103142.80
2019-03-22T02:17:10.841Z,103136.94
2019-03-22T02:19:40.352Z,103114.74
2019-03-22T02:22:09.852Z,103110.84
2019-03-22T02:24:39.090Z,103113.38
2019-03-22T02:27:08.967Z,103126.48
2019-03-22T02:29:38.473Z,103138.73
2019-03-22T02:32:07.712Z,103139.19
2019-03-22T02:34:37.079Z,103134.75
2019-03-22T02:37:06.898Z,103144.03
2019-03-22T02:39:36.283Z,103157.92
2019-03-22T02:42:05.906Z,103152.13
2019-03-22T02:44:35.406Z,103156.52
2019-03-22T02:47:04.816Z,103153.20
2019-03-22T02:49:34.631Z,103149.73
2019-03-22T02:52:03.984Z,103147.49
2019-03-22T02:54:33.434Z,103154.31
2019-03-22T02:57:02.935Z,103157.38
2019-03-22T02:59:32.443Z,103155.87
2019-03-22T03:02:01.948Z,103147.49
2019-03-22T03:04:32.025Z,103147.49
2019-03-22T03:07:01.198Z,103156.09
2019-03-22T03:09:30.409Z,103158.39
2019-03-22T03:11:59.624Z,103156.95
2019-03-22T03:14:28.781Z,103158.66
2019-03-22T03:16:58.260Z,103153.88
2019-03-22T03:19:27.793Z,103162.94
2019-03-22T03:21:56.953Z,103164.54
2019-03-22T03:24:26.567Z,103161.98
2019-03-22T03:26:55.929Z,103154.39
2019-03-22T03:29:25.255Z,103159.91
2019-03-22T03:31:54.808Z,103176.41
2019-03-22T03:34:24.005Z,103185.00
2019-03-22T03:36:53.600Z,103189.77
2019-03-22T03:39:22.813Z,103189.77
2019-03-22T03:41:51.998Z,103183.30
2019-03-22T03:44:21.802Z,103182.38
2019-03-22T03:46:50.988Z,103191.97
2019-03-22T03:49:20.182Z,103186.19
2019-03-22T03:51:49.714Z,103180.38
2019-03-22T03:54:19.219Z,103180.93
2019-03-22T03:56:48.453Z,103193.80
2019-03-22T03:59:17.917Z,103204.23
2019-03-22T04:01:47.110Z,103204.39
2019-03-22T04:04:16.355Z,103201.87
2019-03-22T04:06:45.570Z,103204.70
2019-03-22T04:09:14.760Z,103205.91
2019-03-22T04:11:44.325Z,103205.27
2019-03-22T04:14:13.532Z,103209.36
2019-03-22T04:16:42.713Z,103208.59
2019-03-22T04:19:12.844Z,103213.73
2019-03-22T04:21:42.069Z,103212.59
2019-03-22T04:24:11.262Z,103204.35
2019-03-22T04:26:40.739Z,103196.02
2019-03-22T04:29:09.969Z,103208.47
2019-03-22T04:31:39.442Z,103215.34
2019-03-22T04:34:08.965Z,103217.70
2019-03-22T04:36:38.220Z,103214.13
2019-03-22T04:39:08.992Z,103202.57
2019-03-22T04:41:38.271Z,103207.02
2019-03-22T04:44:07.888Z,103221.81
2019-03-22T04:46:37.651Z,103219.87
2019-03-22T04:49:07.210Z,103204.95
2019-03-22T04:51:36.924Z,103207.77
2019-03-22T04:54:07.326Z,103225.33
2019-03-22T04:56:38.040Z,103233.06
2019-03-22T04:59:18.446Z,103230.39
2019-03-22T05:01:42.420Z,103223.52
2019-03-22T05:04:12.646Z,103217.33
2019-03-22T05:06:43.568Z,103233.66
2019-03-22T05:09:14.631Z,103230.75
2019-03-22T05:11:44.053Z,103229.13
2019-03-22T05:14:14.724Z,103238.27
2019-03-22T05:16:46.161Z,103238.43
2019-03-22T05:19:16.027Z,103235.84
2019-03-22T05:21:45.914Z,103247.86
2019-03-22T05:24:18.258Z,103251.58
2019-03-22T05:26:48.846Z,103249.52
2019-03-22T05:29:29.869Z,103255.98
2019-03-22T05:32:08.954Z,103255.42
2019-03-22T05:34:38.566Z,103259.45
2019-03-22T05:37:08.241Z,103265.19
2019-03-22T05:39:37.384Z,103264.80
2019-03-22T05:42:07.178Z,103255.34
2019-03-22T05:44:36.446Z,103263.14
2019-03-22T05:47:06.192Z,103258.58
2019-03-22T05:49:36.011Z,103261.08
2019-03-22T05:52:05.611Z,103260.66
2019-03-22T05:54:35.419Z,103264.94
2019-03-22T05:57:13.415Z,103273.33
2019-03-22T05:59:42.391Z,103272.69
2019-03-22T06:02:07.326Z,103254.23
2019-03-22T06:04:36.830Z,103249.57
2019-03-22T06:07:09.200Z,103256.34
2019-03-22T06:09:39.321Z,103261.47
2019-03-22T06:12:08.833Z,103256.66
2019-03-22T06:14:38.328Z,103259.30
2019-03-22T06:17:07.845Z,103266.67
2019-03-22T06:19:37.341Z,103269.64
2019-03-22T06:22:06.987Z,103262.03
2019-03-22T06:24:36.194Z,103266.41
2019-03-22T06:27:06.063Z,103263.70
2019-03-22T06:29:35.576Z,103265.88
2019-03-22T06:32:05.071Z,103269.52
2019-03-22T06:34:34.774Z,103276.22
2019-03-22T06:37:04.297Z,103277.56
2019-03-22T06:39:34.097Z,103264.18
2019-03-22T06:42:03.395Z,103240.47
2019-03-22T06:44:33.589Z,103240.47
2019-03-22T06:47:02.851Z,103269.12
2019-03-22T06:49:32.349Z,103269.12
2019-03-22T06:52:01.854Z,103267.89
2019-03-22T06:54:32.099Z,103261.92
2019-03-22T06:57:02.189Z,103259.64
2019-03-22T06:59:31.699Z,103262.09
2019-03-22T07:02:01.187Z,103256.25
2019-03-22T07:04:30.692Z,103256.81
2019-03-22T07:07:00.185Z,103256.81
2019-03-22T07:09:29.368Z,103263.30
2019-03-22T07:11:58.621Z,103259.33
2019-03-22T07:14:27.817Z,103256.72
2019-03-22T07:16:58.955Z,103255.98
2019-03-22T07:19:28.276Z,103250.11
2019-03-22T07:21:57.437Z,103258.34
2019-03-22T07:24:26.614Z,103241.36
2019-03-22T07:26:56.142Z,103246.28
2019-03-22T07:29:25.330Z,103246.19
2019-03-22T07:31:54.947Z,103246.56
2019-03-22T07:34:24.462Z,103241.30
2019-03-22T07:36:53.628Z,103236.44
2019-03-22T07:39:23.162Z,103233.21
2019-03-22T07:41:52.972Z,103243.62
2019-03-22T07:44:22.716Z,103246.34
2019-03-22T07:46:52.210Z,103251.66
2019-03-22T07:49:21.438Z,103255.61
2019-03-22T07:51:50.666Z,103246.72
2019-03-22T07:54:19.830Z,103239.89
2019-03-22T07:56:49.602Z,103239.89
2019-03-22T07:59:19.205Z,103241.33
2019-03-22T08:01:48.474Z,103244.30
2019-03-22T08:04:18.215Z,103243.95
2019-03-22T08:06:48.028Z,103234.02
2019-03-22T08:09:17.535Z,103243.92
2019-03-22T08:11:47.051Z,103247.27
2019-03-22T08:14:16.594Z,103240.34
2019-03-22T08:16:46.138Z,103240.34
2019-03-22T08:19:15.971Z,103240.58
2019-03-22T08:21:45.695Z,103241.62
2019-03-22T08:24:14.874Z,103242.02
2019-03-22T08:26:44.432Z,103244.48
2019-03-22T08:29:13.628Z,103244.29
2019-03-22T08:31:43.084Z,103244.29
2019-03-22T08:34:12.620Z,103241.56
2019-03-22T08:36:42.418Z,103234.23
2019-03-22T08:39:11.999Z,103228.70
2019-03-22T08:41:41.570Z,103242.28
2019-03-22T08:44:10.765Z,103242.28
2019-03-22T08:46:40.234Z,103243.92
2019-03-22T08:49:10.122Z,103248.09
2019-03-22T08:51:39.651Z,103245.52
2019-03-22T08:54:09.455Z,103246.68
2019-03-22T08:56:38.725Z,103248.27
2019-03-22T08:59:08.218Z,103244.63
2019-03-22T09:01:37.665Z,103242.66
2019-03-22T09:04:06.932Z,103245.28
2019-03-22T09:06:36.353Z,103245.28
2019-03-22T09:09:08.144Z,103232.95
2019-03-22T09:11:37.841Z,103232.95
2019-03-22T09:14:07.878Z,103234.76
2019-03-22T09:16:37.045Z,103227.07
2019-03-22T09:19:06.231Z,103225.56
2019-03-22T09:21:35.970Z,103233.84
2019-03-22T09:24:05.593Z,103222.25
2019-03-22T09:26:47.117Z,103231.31
2019-03-22T09:29:05.976Z,103225.37
2019-03-22T09:31:35.425Z,103227.28
2019-03-22T09:34:04.929Z,103227.41
2019-03-22T09:36:34.445Z,103225.53
2019-03-22T09:39:04.225Z,103216.26
2019-03-22T09:41:33.392Z,103223.73
2019-03-22T09:44:02.913Z,103223.53
2019-03-22T09:46:32.359Z,103224.20
2019-03-22T09:49:02.021Z,103221.42
2019-03-22T09:51:31.473Z,103219.35
2019-03-22T09:54:00.977Z,103217.97
2019-03-22T09:56:30.140Z,103215.26
2019-03-22T09:59:00.107Z,103212.77
2019-03-22T10:01:29.287Z,103206.90
2019-03-22T10:03:58.520Z,103218.03
2019-03-22T10:06:28.002Z,103213.58
2019-03-22T10:08:57.502Z,103211.31
2019-03-22T10:11:27.012Z,103197.99
2019-03-22T10:13:56.844Z,103204.84
2019-03-22T10:16:25.994Z,103207.58
2019-03-22T10:18:55.476Z,103205.39
2019-03-22T10:21:24.741Z,103202.94
2019-03-22T10:23:54.204Z,103205.52
2019-03-22T10:26:24.055Z,103208.14
2019-03-22T10:28:53.550Z,103201.94
2019-03-22T10:31:27.258Z,103201.86
2019-03-22T10:33:53.644Z,103198.71
2019-03-22T10:36:22.952Z,103201.02
2019-03-22T10:38:52.115Z,103208.69
2019-03-22T10:41:21.260Z,103197.56
2019-03-22T10:43:50.940Z,103189.13
2019-03-22T10:46:20.126Z,103194.62
2019-03-22T10:48:49.324Z,103191.39
2019-03-22T10:51:21.393Z,103201.38
2019-03-22T10:53:49.714Z,103194.88
2019-03-22T10:56:18.941Z,103190.57
2019-03-22T10:58:48.440Z,103180.87
2019-03-22T11:01:17.936Z,103172.03
2019-03-22T11:03:47.116Z,103172.50
2019-03-22T11:06:25.801Z,103176.27
2019-03-22T11:08:47.886Z,103173.67
2019-03-22T11:11:17.361Z,103163.08
2019-03-22T11:13:46.885Z,103167.54
2019-03-22T11:16:16.403Z,103163.21
2019-03-22T11:18:45.569Z,103158.66
2019-03-22T11:21:15.315Z,103163.48
2019-03-22T11:23:45.134Z,103155.40
2019-03-22T11:26:14.614Z,103153.97
2019-03-22T11:28:44.047Z,103150.38
2019-03-22T11:31:14.260Z,103151.48
2019-03-22T11:33:43.772Z,103139.32
2019-03-22T11:36:12.969Z,103136.77
2019-03-22T11:38:42.142Z,103134.05
2019-03-22T11:41:11.690Z,103134.37
2019-03-22T11:43:40.876Z,103139.88
2019-03-22T11:46:10.144Z,103125.59
2019-03-22T11:48:39.676Z,103117.58
2019-03-22T11:51:09.766Z,103125.02
2019-03-22T11:53:39.311Z,103124.77
2019-03-22T11:56:09.501Z,103120.60
2019-03-22T11:58:39.023Z,103116.70
2019-03-22T12:01:08.208Z,103113.83
2019-03-22T12:03:37.629Z,103118.20
2019-03-22T12:06:07.235Z,103121.43
2019-03-22T12:08:36.546Z,103116.38
2019-03-22T12:11:05.932Z,103114.81
2019-03-22T12:13:35.102Z,103111.46
2019-03-22T12:16:04.445Z,103108.72
2019-03-22T12:18:34.029Z,103105.50
2019-03-22T12:21:03.553Z,103113.45
2019-03-22T12:23:33.217Z,103112.82
2019-03-22T12:26:02.878Z,103106.58
2019-03-22T12:28:32.377Z,103100.14
2019-03-22T12:31:01.703Z,103104.58
2019-03-22T12:33:31.184Z,103100.66
2019-03-22T12:36:00.698Z,103095.09
2019-03-22T12:38:30.210Z,103097.00
2019-03-22T12:40:59.766Z,103091.61
2019-03-22T12:43:28.979Z,103099.02
2019-03-22T12:45:58.408Z,103097.71
2019-03-22T12:48:27.964Z,103093.34
2019-03-22T12:50:57.521Z,103095.58
2019-03-22T12:53:27.024Z,103076.36
2019-03-22T12:55:56.837Z,103081.31
2019-03-22T12:58:26.005Z,103087.49
2019-03-22T13:00:55.185Z,103088.59
2019-03-22T13:03:24.948Z,103081.72
2019-03-22T13:05:54.243Z,103083.94
2019-03-22T13:08:23.505Z,103078.13
2019-03-22T13:10:53.054Z,103084.28
2019-03-22T13:13:22.864Z,103077.34
2019-03-22T13:15:52.048Z,103073.80
2019-03-22T13:18:21.570Z,103067.30
2019-03-22T13:20:51.397Z,103064.69
2019-03-22T13:23:20.896Z,103053.92
2019-03-22T13:25:50.455Z,103056.62
2019-03-22T13:28:20.314Z,103058.25
2019-03-22T13:30:49.496Z,103057.72
2019-03-22T13:33:19.022Z,103053.76
2019-03-22T13:35:48.203Z,103045.48
2019-03-22T13:38:17.394Z,103036.53
2019-03-22T13:40:46.930Z,103036.95
2019-03-22T13:43:16.093Z,103027.90
2019-03-22T13:45:45.628Z,103028.16
2019-03-22T13:48:15.548Z,103021.17
2019-03-22T13:50:44.783Z,103023.30
2019-03-22T13:53:14.244Z,103019.67
2019-03-22T13:55:43.854Z,103018.16
2019-03-22T13:58:13.261Z,103026.18
2019-03-22T14:00:42.762Z,103026.05
2019-03-22T14:03:11.968Z,103024.80
2019-03-22T14:05:41.156Z,103021.48
2019-03-22T14:08:10.969Z,103010.95
2019-03-22T14:10:40.988Z,103013.90
2019-03-22T14:13:10.232Z,103012.09
2019-03-22T14:15:39.696Z,103000.95
2019-03-22T14:18:09.317Z,102988.87
2019-03-22T14:20:38.922Z,102991.73
2019-03-22T14:23:08.190Z,102991.69
2019-03-22T14:25:37.396Z,102987.36
2019-03-22T14:28:06.881Z,102980.66
2019-03-22T14:30:36.392Z,102977.47
2019-03-22T14:33:13.306Z,102974.76
2019-03-22T14:35:37.482Z,102981.27
2019-03-22T14:38:06.675Z,102975.03
2019-03-22T14:40:36.181Z,102970.22
2019-03-22T14:43:05.464Z,102966.58
2019-03-22T14:45:35.041Z,102965.59
2019-03-22T14:48:04.498Z,102965.23
2019-03-22T14:50:34.313Z,102962.48
2019-03-22T14:53:03.892Z,102959.73
2019-03-22T14:55:33.425Z,102952.75
2019-03-22T14:58:02.928Z,102950.86
2019-03-22T15:00:32.104Z,102944.68
2019-03-22T15:03:01.272Z,102945.65
2019-03-22T15:05:30.832Z,102944.13
2019-03-22T15:08:00.046Z,102937.67
2019-03-22T15:10:29.534Z,102938.13
2019-03-22T15:12:59.143Z,102929.33
2019-03-22T15:15:43.908Z,102923.18
2019-03-22T15:18:34.906Z,102921.54
2019-03-22T15:21:23.476Z,102923.31
2019-03-22T15:24:14.790Z,102918.78
2019-03-22T15:27:02.997Z,102915.05
2019-03-22T15:30:06.612Z,102912.09
2019-03-22T15:33:01.332Z,102904.75
2019-03-22T15:35:55.448Z,102905.41
2019-03-22T15:38:47.239Z,102899.31
2019-03-22T15:41:16.422Z,102895.30
2019-03-22T15:43:45.864Z,102897.36
2019-03-22T15:46:15.133Z,102895.77
2019-03-22T15:48:44.303Z,102885.47
2019-03-22T15:51:13.561Z,102878.47
2019-03-22T15:53:43.463Z,102874.91
2019-03-22T15:56:12.648Z,102874.73
2019-03-22T15:58:44.807Z,102866.68
2019-03-22T16:01:14.337Z,102867.37
2019-03-22T16:03:44.483Z,102861.47
2019-03-22T16:06:14.263Z,102856.97
2019-03-22T16:08:44.178Z,102852.98
2019-03-22T16:11:13.584Z,102851.62
2019-03-22T16:13:43.086Z,102853.06
2019-03-22T16:16:12.704Z,102852.59
2019-03-22T16:18:41.912Z,102845.03
2019-03-22T16:21:11.055Z,102857.13
2019-03-22T16:23:40.602Z,102848.18
2019-03-22T16:26:09.859Z,102846.73
2019-03-22T16:28:39.709Z,102848.39
2019-03-22T16:31:08.874Z,102832.20
2019-03-22T16:33:38.422Z,102829.99
2019-03-22T16:36:07.934Z,102834.44
2019-03-22T16:38:37.538Z,102833.14
2019-03-22T16:41:07.036Z,102823.23
2019-03-22T16:43:36.540Z,102824.87
2019-03-22T16:46:05.815Z,102824.41
2019-03-22T16:48:35.115Z,102818.31
2019-03-22T16:51:04.297Z,102823.70
2019-03-22T16:53:33.780Z,102814.59
2019-03-22T16:56:03.261Z,102814.13
2019-03-22T16:58:32.423Z,102816.18
2019-03-22T17:01:01.964Z,102820.64
2019-03-22T17:03:31.572Z,102816.13
2019-03-22T17:06:00.786Z,102815.25
2019-03-22T17:08:30.311Z,102812.28
2019-03-22T17:10:59.621Z,102807.21
2019-03-22T17:13:28.874Z,102802.14
2019-03-22T17:15:58.392Z,102801.72
2019-03-22T17:18:28.187Z,102795.42
2019-03-22T17:20:58.004Z,102795.13
2019-03-22T17:23:27.216Z,102789.94
2019-03-22T17:25:56.754Z,102788.45
2019-03-22T17:28:26.528Z,102773.67
2019-03-22T17:30:55.690Z,102773.20
2019-03-22T17:33:25.124Z,102779.70
2019-03-22T17:35:54.310Z,102782.78
2019-03-22T17:38:23.504Z,102786.68
2019-03-22T17:40:52.683Z,102788.45
2019-03-22T17:43:22.119Z,102780.59
2019-03-22T17:45:51.692Z,102787.46
2019-03-22T17:48:20.870Z,102787.88
2019-03-22T17:50:50.329Z,102783.45
2019-03-22T17:53:21.172Z,102790.84
2019-03-22T17:55:50.393Z,102792.09
2019-03-22T17:58:20.120Z,102791.20
2019-03-22T18:00:49.397Z,102793.80
2019-03-22T18:03:18.601Z,102796.30
2019-03-22T18:05:48.082Z,102797.14
2019-03-22T18:08:17.891Z,102797.00
2019-03-22T18:10:47.503Z,102800.48
2019-03-22T18:13:16.710Z,102803.91
2019-03-22T18:15:46.511Z,102804.80
2019-03-22T18:18:16.318Z,102796.06
2019-03-22T18:20:45.833Z,102797.36
2019-03-22T18:23:15.340Z,102802.20
2019-03-22T18:25:44.840Z,102794.66
2019-03-22T18:28:14.961Z,102795.49
2019-03-22T18:30:44.474Z,102796.73
2019-03-22T18:33:13.955Z,102795.49
2019-03-22T18:35:43.427Z,102796.32
2019-03-22T18:38:12.991Z,102802.35
2019-03-22T18:40:42.492Z,102793.58
2019-03-22T18:43:12.313Z,102790.88
2019-03-22T18:45:41.815Z,102800.91
2019-03-22T18:48:11.010Z,102801.75
2019-03-22T18:50:40.651Z,102795.19
2019-03-22T18:53:10.099Z,102786.98
2019-03-22T18:55:39.962Z,102785.58
2019-03-22T18:58:09.552Z,102785.47
2019-03-22T19:00:39.048Z,102782.81
2019-03-22T19:03:08.559Z,102776.54
2019-03-22T19:05:38.059Z,102773.47
2019-03-22T19:08:07.243Z,102763.02
2019-03-22T19:10:36.770Z,102771.19
2019-03-22T19:13:07.837Z,102771.91
2019-03-22T19:15:37.232Z,102773.67
2019-03-22T19:18:06.422Z,102771.41
2019-03-22T19:20:36.273Z,102764.38
2019-03-22T19:23:05.828Z,102759.13
2019-03-22T19:25:35.431Z,102746.86
2019-03-22T19:28:04.695Z,102755.49
2019-03-22T19:30:33.951Z,102760.08
2019-03-22T19:33:04.161Z,102758.36
2019-03-22T19:35:33.772Z,102758.25
2019-03-22T19:38:02.982Z,102746.04
2019-03-22T19:40:32.447Z,102743.64
2019-03-22T19:43:01.695Z,102742.45
2019-03-22T19:45:31.175Z,102738.44
2019-03-22T19:48:00.992Z,102731.23
2019-03-22T19:50:30.493Z,102728.05
2019-03-22T19:52:59.664Z,102730.12
2019-03-22T19:55:28.885Z,102732.05
2019-03-22T19:57:58.323Z,102725.74
2019-03-22T20:00:27.798Z,102730.78
2019-03-22T20:02:57.015Z,102722.00
2019-03-22T20:05:31.223Z,102720.12
2019-03-22T20:08:00.571Z,102713.90
2019-03-22T20:10:29.930Z,102713.31
2019-03-22T20:12:59.210Z,102717.56
2019-03-22T20:15:28.467Z,102716.03
2019-03-22T20:17:57.662Z,102707.98
2019-03-22T20:20:27.249Z,102706.16
2019-03-22T20:22:56.439Z,102709.64
2019-03-22T20:25:26.034Z,102701.94
2019-03-22T20:27:55.559Z,102706.25
2019-03-22T20:30:24.816Z,102705.72
2019-03-22T20:32:55.179Z,102705.95
2019-03-22T20:35:24.367Z,102708.86
2019-03-22T20:37:53.868Z,102703.56
2019-03-22T20:40:23.139Z,102701.80
2019-03-22T20:42:52.363Z,102699.02
2019-03-22T20:45:24.445Z,102694.80
2019-03-22T20:47:53.124Z,102693.00
2019-03-22T20:50:22.732Z,102688.16
2019-03-22T20:52:52.286Z,102686.74
2019-03-22T20:55:21.695Z,102684.50
2019-03-22T20:57:50.892Z,102682.94
2019-03-22T21:00:20.544Z,102671.44
2019-03-22T21:02:50.257Z,102676.11
2019-03-22T21:05:26.998Z,102668.09
2019-03-22T21:07:50.999Z,102668.38
2019-03-22T21:10:20.736Z,102667.03
2019-03-22T21:12:50.472Z,102666.52
2019-03-22T21:15:24.426Z,102663.39
2019-03-22T21:17:50.659Z,102665.80
2019-03-22T21:20:20.177Z,102662.80
2019-03-22T21:22:49.680Z,102664.32
2019-03-22T21:25:19.302Z,102659.45
2019-03-22T21:27:48.545Z,102660.91
2019-03-22T21:30:17.824Z,102664.32
2019-03-22T21:32:47.895Z,102658.73
2019-03-22T21:35:22.609Z,102665.11
2019-03-22T21:37:48.404Z,102654.15
2019-03-22T21:40:17.108Z,102656.73
2019-03-22T21:42:46.436Z,102656.20
2019-03-22T21:45:16.055Z,102655.80
2019-03-22T21:47:45.541Z,102655.67
2019-03-22T21:50:15.168Z,102650.42
2019-03-22T21:52:45.083Z,102648.91
2019-03-22T21:55:14.353Z,102648.72
2019-03-22T21:57:43.788Z,102646.06
2019-03-22T22:00:13.274Z,102647.70
2019-03-22T22:02:43.118Z,102651.18
2019-03-22T22:05:12.416Z,102645.84
2019-03-22T22:07:41.592Z,102645.30
2019-03-22T22:10:11.111Z,102637.63
2019-03-22T22:12:40.722Z,102637.63
2019-03-22T22:15:11.312Z,102627.27
2019-03-22T22:17:41.019Z,102625.22
2019-03-22T22:20:10.294Z,102629.89
2019-03-22T22:22:39.460Z,102625.82
2019-03-22T22:25:09.626Z,102626.70
2019-03-22T22:27:39.090Z,102617.64
2019-03-22T22:30:09.412Z,102618.52
2019-03-22T22:32:38.693Z,102613.41
2019-03-22T22:35:08.734Z,102608.98
2019-03-22T22:37:38.651Z,102607.22
2019-03-22T22:40:08.967Z,102596.32
2019-03-22T22:42:38.579Z,102593.79
2019-03-22T22:45:08.239Z,102592.14
2019-03-22T22:47:37.450Z,102584.38
2019-03-22T22:50:07.310Z,102576.67
2019-03-22T22:52:36.911Z,102571.36
2019-03-22T22:55:06.909Z,102582.85
2019-03-22T22:57:36.446Z,102573.78
2019-03-22T23:00:06.661Z,102570.84
2019-03-22T23:02:35.840Z,102569.64
2019-03-22T23:05:05.871Z,102563.95
2019-03-22T23:07:35.767Z,102561.87
2019-03-22T23:10:06.443Z,102553.40
2019-03-22T23:12:35.717Z,102548.16
2019-03-22T23:15:05.345Z,102549.52
2019-03-22T23:17:35.924Z,102544.86
2019-03-22T23:20:06.598Z,102538.38
2019-03-22T23:22:36.521Z,102531.50
2019-03-22T23:25:06.021Z,102523.25
2019-03-22T23:27:35.193Z,102522.84
2019-03-22T23:30:05.610Z,102518.02
2019-03-22T23:32:35.141Z,102519.66
2019-03-22T23:35:05.058Z,102507.38
2019-03-22T23:37:34.579Z,102507.67
2019-03-22T23:40:04.480Z,102504.97
2019-03-22T23:42:34.091Z,102506.20
2019-03-22T23:45:03.905Z,102495.98
2019-03-22T23:47:33.137Z,102493.45
2019-03-22T23:50:02.344Z,102494.28
2019-03-22T23:52:31.905Z,102489.09
2019-03-22T23:55:01.417Z,102484.15
2019-03-22T23:57:30.702Z,102486.39
